Nueva Esperanza, Argentina
Current Conditions -  °F | °C
As of 8:00 PM on Tuesday 21 Oct 2014 (Local Time) from SANT Reporting Station
Broken Clouds Broken Clouds  
Wind Chill: 79°   Ceiling: 20000
Heat Index: 80°   Visibility: 5mi
Dew Point: 63°   Wind: 7mph
Humidity: 57%   Direction: 230°SW
Pressure: 29.91"   Gusts: NA
Location:  26.2°S, 64.27°W
Report Text: SANT 212300Z 23006KT 8000 FEW040 BKN20026/17 Q1013
Loading
Personal Weather Stations






























Interactive Weather Map
Tropical Storm Tracking
New forecast layout! Learn more

10-Day Weather Forecast

Advertisements
Track Severe Weather on mobile